createdAt,value
2017-12-09T00:02:21.914Z,3.00
2017-12-09T00:22:58.648Z,2.62
2017-12-09T00:43:32.461Z,2.55
2017-12-09T01:04:05.579Z,2.65
2017-12-09T01:24:43.919Z,2.15
2017-12-09T01:45:17.375Z,2.12
2017-12-09T02:05:53.233Z,2.37
2017-12-09T02:26:26.352Z,2.20
2017-12-09T02:47:00.703Z,2.10
2017-12-09T03:07:41.324Z,2.40
2017-12-09T03:28:14.312Z,2.55
2017-12-09T03:48:46.788Z,3.05
2017-12-09T04:09:20.556Z,2.50
2017-12-09T04:29:57.195Z,1.65
2017-12-09T04:38:41.384Z,2.12
2017-12-09T04:59:14.269Z,2.55
2017-12-09T05:19:50.769Z,1.75
2017-12-09T05:40:24.811Z,2.10
2017-12-09T06:01:01.619Z,2.20
2017-12-09T06:21:36.890Z,2.47
2017-12-09T06:42:09.399Z,3.22
2017-12-09T07:02:44.666Z,2.40
2017-12-09T07:23:20.859Z,1.70
2017-12-09T07:43:54.290Z,2.47
2017-12-09T08:04:28.326Z,2.22
2017-12-09T08:25:00.530Z,2.10
2017-12-09T08:45:35.103Z,1.98
2017-12-09T09:06:08.000Z,2.45
2017-12-09T09:26:44.193Z,2.37
2017-12-09T09:47:18.542Z,1.92
2017-12-09T10:07:52.585Z,2.10
2017-12-09T10:28:27.241Z,1.87
2017-12-09T10:49:02.462Z,2.10
2017-12-09T11:09:38.635Z,2.28
2017-12-09T11:30:12.856Z,2.15
2017-12-09T11:50:46.794Z,2.35
2017-12-09T12:11:22.062Z,1.95
2017-12-09T12:32:03.176Z,2.10
2017-12-09T12:52:36.598Z,1.95
2017-12-09T13:13:13.715Z,2.00
2017-12-09T13:33:48.061Z,1.90
2017-12-09T13:54:22.110Z,2.08
2017-12-09T14:14:53.381Z,2.15
2017-12-09T14:35:26.498Z,2.22
2017-12-09T14:56:00.852Z,2.70
2017-12-09T15:16:41.414Z,2.22
2017-12-09T15:37:13.238Z,2.30
2017-12-09T15:57:47.586Z,2.20
2017-12-09T16:18:20.724Z,2.17
2017-12-09T16:38:54.137Z,2.40
2017-12-09T16:59:26.028Z,3.00
2017-12-09T17:20:02.528Z,3.72
2017-12-09T17:40:36.570Z,3.15
2017-12-09T18:01:12.454Z,3.17
2017-12-09T18:21:48.036Z,3.62
2017-12-09T18:42:19.575Z,3.30
2017-12-09T19:02:53.801Z,3.12
2017-12-09T19:23:30.779Z,3.22
2017-12-09T20:02:11.407Z,3.15
2017-12-09T20:22:47.907Z,2.95
2017-12-09T20:43:25.509Z,2.72
2017-12-09T21:03:58.452Z,2.05
2017-12-09T21:24:30.655Z,2.87
2017-12-09T21:45:05.924Z,2.15
2017-12-09T22:05:39.967Z,2.30
2017-12-09T22:26:13.398Z,2.72
2017-12-09T22:46:45.595Z,1.70
2017-12-09T23:07:19.999Z,2.00
2017-12-09T23:27:52.759Z,2.10
2017-12-09T23:48:25.267Z,2.30
